createdAt,value
2022-08-10T00:01:54.221Z,2.75
2022-08-10T00:04:24.040Z,2.87
2022-08-10T00:06:53.691Z,2.62
2022-08-10T00:09:22.043Z,2.89
2022-08-10T00:11:50.304Z,2.91
2022-08-10T00:14:18.804Z,2.69
2022-08-10T00:16:46.981Z,2.50
2022-08-10T00:19:16.401Z,2.88
2022-08-10T00:21:47.097Z,2.77
2022-08-10T00:24:16.128Z,3.03
2022-08-10T00:27:58.806Z,2.84
2022-08-10T00:29:32.188Z,3.05
2022-08-10T00:32:00.330Z,3.10
2022-08-10T00:34:29.417Z,2.83
2022-08-10T00:36:58.452Z,2.87
2022-08-10T00:39:27.793Z,2.95
2022-08-10T00:42:01.911Z,2.87
2022-08-10T00:44:41.806Z,2.74
2022-08-10T00:47:35.411Z,2.90
2022-08-10T00:50:00.224Z,2.94
2022-08-10T00:52:30.469Z,2.77
2022-08-10T00:54:59.361Z,2.88
2022-08-10T00:57:28.020Z,2.85
2022-08-10T00:59:59.038Z,2.65
2022-08-10T01:02:30.796Z,2.77
2022-08-10T01:05:20.497Z,2.81
2022-08-10T01:08:10.886Z,2.75
2022-08-10T01:10:47.064Z,2.86
2022-08-10T01:13:21.538Z,2.93
2022-08-10T01:15:55.289Z,2.73
2022-08-10T01:18:35.859Z,2.67
2022-08-10T01:21:30.860Z,2.86
2022-08-10T01:24:25.180Z,3.03
2022-08-10T01:27:23.080Z,2.81
2022-08-10T01:30:06.033Z,2.85
2022-08-10T01:33:13.410Z,2.73
2022-08-10T01:35:43.100Z,2.98
2022-08-10T01:38:14.979Z,2.95
2022-08-10T01:40:56.799Z,3.00
2022-08-10T01:43:28.827Z,3.13
2022-08-10T01:46:00.011Z,2.93
2022-08-10T01:48:34.910Z,2.82
2022-08-10T01:51:19.230Z,2.89
2022-08-10T01:53:55.738Z,2.79
2022-08-10T01:56:25.817Z,3.01
2022-08-10T01:59:00.217Z,2.87
2022-08-10T02:01:38.637Z,2.82
2022-08-10T02:04:10.516Z,2.91
2022-08-10T02:06:49.473Z,2.83
2022-08-10T02:09:23.989Z,3.10
2022-08-10T02:12:07.784Z,3.14
2022-08-10T02:14:43.754Z,2.97
2022-08-10T02:18:00.316Z,3.18
2022-08-10T02:20:10.722Z,2.91
2022-08-10T02:22:40.869Z,3.09
2022-08-10T02:25:41.227Z,2.92
2022-08-10T02:28:01.052Z,2.90
2022-08-10T02:30:31.292Z,3.13
2022-08-10T02:33:01.704Z,3.07
2022-08-10T02:35:41.172Z,2.94
2022-08-10T02:38:59.150Z,2.94
2022-08-10T02:42:18.889Z,3.04
2022-08-10T02:45:19.340Z,3.03
2022-08-10T02:47:50.723Z,2.94
2022-08-10T02:50:33.194Z,3.22
2022-08-10T02:53:55.550Z,3.26
2022-08-10T02:56:38.556Z,3.10
2022-08-10T02:59:10.921Z,3.24
2022-08-10T03:01:43.946Z,3.29
2022-08-10T03:04:17.794Z,3.23
2022-08-10T03:07:02.536Z,3.49
2022-08-10T03:09:32.409Z,3.38
2022-08-10T03:12:35.507Z,3.60
2022-08-10T03:14:51.281Z,3.98
2022-08-10T03:17:21.353Z,4.41
2022-08-10T03:20:34.626Z,4.48
2022-08-10T03:22:41.673Z,5.04
2022-08-10T03:25:12.482Z,4.57
2022-08-10T03:27:44.035Z,4.01
2022-08-10T03:30:28.391Z,3.90
2022-08-10T03:33:04.654Z,3.98
2022-08-10T03:35:33.174Z,4.10
2022-08-10T03:38:01.755Z,4.01
2022-08-10T03:40:46.217Z,4.17
2022-08-10T03:43:21.110Z,4.17
2022-08-10T03:45:54.810Z,4.31
2022-08-10T03:48:32.248Z,4.35
2022-08-10T03:51:18.259Z,4.43
2022-08-10T03:54:03.257Z,4.07
2022-08-10T03:56:39.108Z,4.24
2022-08-10T03:59:09.635Z,4.49
2022-08-10T04:02:45.056Z,4.77
2022-08-10T04:04:26.583Z,4.48
2022-08-10T04:06:57.502Z,4.50
2022-08-10T04:09:42.642Z,4.72
2022-08-10T04:12:16.040Z,4.49
2022-08-10T04:14:49.564Z,4.71
2022-08-10T04:17:56.362Z,4.64
2022-08-10T04:20:25.710Z,4.35
2022-08-10T04:23:03.474Z,4.43
2022-08-10T04:25:31.785Z,5.04
2022-08-10T04:27:59.813Z,5.09
2022-08-10T04:30:29.381Z,4.29
2022-08-10T04:33:00.022Z,4.47
2022-08-10T04:35:29.811Z,4.20
2022-08-10T04:37:59.715Z,4.46
2022-08-10T04:40:29.186Z,4.19
2022-08-10T04:43:01.426Z,3.82
2022-08-10T04:45:49.011Z,4.24
2022-08-10T04:48:40.935Z,4.43
2022-08-10T04:51:18.047Z,4.58
2022-08-10T04:54:03.334Z,4.38
2022-08-10T04:56:38.382Z,4.60
2022-08-10T04:59:10.112Z,4.24
2022-08-10T05:02:22.415Z,4.65
2022-08-10T05:04:34.906Z,4.48
2022-08-10T05:07:09.225Z,4.61
2022-08-10T05:10:00.428Z,4.44
2022-08-10T05:12:29.497Z,4.69
2022-08-10T05:14:57.554Z,4.64
2022-08-10T05:17:25.485Z,5.06
2022-08-10T05:20:04.987Z,4.86
2022-08-10T05:22:45.596Z,5.07
2022-08-10T05:25:20.748Z,4.81
2022-08-10T05:27:48.931Z,4.81
2022-08-10T05:30:19.459Z,5.20
2022-08-10T05:32:56.506Z,5.45
2022-08-10T05:35:55.096Z,5.01
2022-08-10T05:38:20.555Z,5.15
2022-08-10T05:40:49.779Z,5.29
2022-08-10T05:43:20.193Z,5.57
2022-08-10T05:46:18.431Z,5.25
2022-08-10T05:48:57.253Z,5.14
2022-08-10T05:51:29.819Z,5.07
2022-08-10T05:54:04.873Z,4.76
2022-08-10T05:56:57.072Z,5.41
2022-08-10T06:00:11.347Z,5.08
2022-08-10T06:02:35.438Z,5.56
2022-08-10T06:05:11.191Z,5.33
2022-08-10T06:07:50.007Z,5.33
2022-08-10T06:10:31.182Z,5.67
2022-08-10T06:13:29.885Z,6.60
2022-08-10T06:16:07.384Z,6.63
2022-08-10T06:18:36.820Z,6.42
2022-08-10T06:21:06.340Z,5.64
2022-08-10T06:23:35.225Z,5.19
2022-08-10T06:26:10.807Z,4.99
2022-08-10T06:29:03.739Z,4.95
2022-08-10T06:31:48.790Z,4.94
2022-08-10T06:34:33.577Z,4.47
2022-08-10T06:37:05.744Z,4.56
2022-08-10T06:39:36.095Z,4.19
2022-08-10T06:42:15.444Z,4.02
2022-08-10T06:45:03.664Z,3.92
2022-08-10T06:47:54.365Z,4.17
2022-08-10T06:50:56.134Z,4.68
2022-08-10T06:53:52.384Z,5.76
2022-08-10T06:56:38.158Z,5.17
2022-08-10T06:59:27.754Z,4.02
2022-08-10T07:02:04.406Z,3.66
2022-08-10T07:04:41.760Z,3.82
2022-08-10T07:07:15.940Z,3.48
2022-08-10T07:09:45.689Z,3.63
2022-08-10T07:12:15.743Z,3.61
2022-08-10T07:14:45.356Z,3.36
2022-08-10T07:17:16.879Z,3.48
2022-08-10T07:19:50.304Z,3.53
2022-08-10T07:23:01.474Z,3.56
2022-08-10T07:25:16.945Z,3.47
2022-08-10T07:27:58.921Z,3.45
2022-08-10T07:30:37.314Z,3.34
2022-08-10T07:33:06.718Z,3.64
2022-08-10T07:35:42.535Z,3.61
2022-08-10T07:38:17.168Z,3.22
2022-08-10T07:40:47.905Z,3.58
2022-08-10T07:43:18.067Z,3.73
2022-08-10T07:45:47.812Z,3.65
2022-08-10T07:48:28.987Z,3.26
2022-08-10T07:51:01.998Z,3.37
2022-08-10T07:53:43.471Z,3.88
2022-08-10T07:56:26.264Z,3.60
2022-08-10T07:59:05.697Z,3.48
2022-08-10T08:01:37.263Z,3.63
2022-08-10T08:04:11.803Z,3.24
2022-08-10T08:06:42.284Z,3.36
2022-08-10T08:09:11.247Z,3.55
2022-08-10T08:11:42.897Z,3.14
2022-08-10T08:14:12.003Z,3.41
2022-08-10T08:16:42.799Z,3.73
2022-08-10T08:19:28.176Z,3.58
2022-08-10T08:24:07.379Z,3.91
2022-08-10T08:24:52.132Z,4.13
2022-08-10T08:27:21.418Z,3.90
2022-08-10T08:29:51.835Z,4.22
2022-08-10T08:32:23.777Z,4.14
2022-08-10T08:34:58.224Z,4.03
2022-08-10T08:38:33.505Z,3.77
2022-08-10T08:40:22.038Z,3.61
2022-08-10T08:43:08.370Z,4.01
2022-08-10T08:46:07.359Z,3.74
2022-08-10T08:48:47.566Z,3.88
2022-08-10T08:52:07.825Z,3.64
2022-08-10T08:54:53.740Z,3.51
2022-08-10T08:57:51.669Z,3.67
2022-08-10T09:00:48.495Z,3.57
2022-08-10T09:03:40.936Z,3.81
2022-08-10T09:06:27.519Z,3.71
2022-08-10T09:09:10.506Z,3.67
2022-08-10T09:12:06.104Z,3.78
2022-08-10T09:14:54.484Z,3.76
2022-08-10T09:17:47.855Z,3.59
2022-08-10T09:20:37.483Z,3.50
2022-08-10T09:24:01.972Z,3.51
2022-08-10T09:26:23.799Z,3.92
2022-08-10T09:29:11.596Z,3.88
2022-08-10T09:33:05.413Z,3.58
2022-08-10T09:36:26.169Z,3.49
2022-08-10T09:38:08.921Z,3.65
2022-08-10T09:41:09.070Z,3.66
2022-08-10T09:44:05.819Z,3.97
2022-08-10T09:47:07.800Z,3.87
2022-08-10T09:51:16.278Z,3.90
2022-08-10T09:53:46.295Z,3.93
2022-08-10T09:56:35.193Z,3.84
2022-08-10T09:59:59.228Z,3.64
2022-08-10T10:02:33.901Z,3.86
2022-08-10T10:05:29.376Z,3.58
2022-08-10T10:08:04.575Z,3.67
2022-08-10T10:10:46.134Z,3.70
2022-08-10T10:14:03.823Z,3.91
2022-08-10T10:16:51.120Z,3.92
2022-08-10T10:19:43.659Z,3.57
2022-08-10T10:22:37.130Z,3.52
2022-08-10T10:25:20.601Z,3.74
2022-08-10T10:27:51.643Z,3.61
2022-08-10T10:30:20.626Z,3.80
2022-08-10T10:33:20.840Z,3.97
2022-08-10T10:35:54.111Z,4.36
2022-08-10T10:38:27.037Z,3.89
2022-08-10T10:41:20.887Z,4.06
2022-08-10T10:44:06.382Z,3.74
2022-08-10T10:47:04.180Z,3.83
2022-08-10T10:49:53.297Z,12.57
2022-08-10T10:52:24.075Z,5.78
2022-08-10T10:55:10.348Z,3.88
2022-08-10T10:58:00.305Z,4.34
2022-08-10T11:00:45.069Z,10.25
2022-08-10T11:03:41.736Z,9.97
2022-08-10T11:06:21.611Z,10.05
2022-08-10T11:08:56.377Z,6.53
2022-08-10T11:12:00.307Z,4.17
2022-08-10T11:14:29.524Z,4.30
2022-08-10T11:17:05.779Z,3.98
2022-08-10T11:20:01.201Z,3.92
2022-08-10T11:22:41.997Z,4.44
2022-08-10T11:25:46.858Z,4.55
2022-08-10T11:28:50.431Z,11.69
2022-08-10T11:31:31.348Z,6.55
2022-08-10T11:34:48.540Z,3.80
2022-08-10T11:36:59.847Z,4.03
2022-08-10T11:39:30.229Z,4.28
2022-08-10T11:42:27.795Z,3.99
2022-08-10T11:45:32.488Z,4.55
2022-08-10T11:48:54.477Z,4.30
2022-08-10T11:51:44.963Z,7.80
2022-08-10T12:03:00.394Z,3.87
2022-08-10T12:05:53.740Z,3.59
2022-08-10T12:10:05.425Z,3.95
2022-08-10T12:11:26.602Z,4.60
2022-08-10T12:14:28.070Z,4.25
2022-08-10T12:17:25.467Z,3.91
2022-08-10T12:20:18.111Z,4.05
2022-08-10T12:23:02.403Z,4.08
2022-08-10T12:26:00.729Z,3.62
2022-08-10T12:28:50.884Z,3.84
2022-08-10T12:31:31.508Z,4.35
2022-08-10T12:34:15.146Z,5.44
2022-08-10T12:36:54.028Z,5.83
2022-08-10T12:39:31.423Z,4.94
2022-08-10T12:42:07.499Z,5.00
2022-08-10T12:44:42.770Z,3.94
2022-08-10T12:47:41.976Z,5.16
2022-08-10T12:50:33.397Z,3.63
2022-08-10T12:53:11.359Z,3.60
2022-08-10T12:55:41.705Z,3.38
2022-08-10T12:59:00.366Z,3.26
2022-08-10T13:01:16.101Z,3.80
2022-08-10T13:04:23.645Z,4.04
2022-08-10T13:06:47.094Z,3.77
2022-08-10T13:09:24.435Z,3.01
2022-08-10T13:12:35.529Z,2.58
2022-08-10T13:14:58.947Z,2.91
2022-08-10T13:17:39.233Z,6.79
2022-08-10T13:20:31.045Z,5.60
2022-08-10T13:23:02.657Z,4.54
2022-08-10T13:25:36.850Z,3.49
2022-08-10T13:28:35.318Z,3.30
2022-08-10T13:30:58.106Z,2.91
2022-08-10T13:34:39.912Z,3.03
2022-08-10T13:36:26.639Z,3.53
2022-08-10T13:38:59.158Z,3.68
2022-08-10T13:41:29.714Z,3.41
2022-08-10T13:43:59.987Z,2.88
2022-08-10T13:46:28.308Z,2.95
2022-08-10T13:48:58.438Z,3.10
2022-08-10T13:51:57.502Z,3.26
2022-08-10T13:54:19.457Z,3.04
2022-08-10T13:56:49.982Z,3.54
2022-08-10T14:07:11.753Z,3.75
2022-08-10T14:10:12.840Z,3.14
2022-08-10T14:12:48.319Z,3.77
2022-08-10T14:15:32.254Z,3.93
2022-08-10T14:18:05.057Z,4.82
2022-08-10T14:20:43.873Z,3.57
2022-08-10T14:23:14.118Z,3.27
2022-08-10T14:26:09.260Z,2.87
2022-08-10T14:28:45.351Z,3.20
2022-08-10T14:31:21.992Z,3.43
2022-08-10T14:33:59.102Z,3.44
2022-08-10T14:36:50.923Z,3.64
2022-08-10T14:39:26.911Z,3.44
2022-08-10T14:42:20.094Z,2.98
2022-08-10T14:45:37.991Z,3.36
2022-08-10T14:48:16.701Z,2.99
2022-08-10T14:50:55.794Z,3.34
2022-08-10T14:53:27.490Z,3.24
2022-08-10T14:56:01.990Z,3.40
2022-08-10T14:58:34.759Z,3.15
2022-08-10T15:01:05.704Z,3.16
2022-08-10T15:03:59.221Z,4.50
2022-08-10T15:06:54.126Z,3.56
2022-08-10T15:09:25.989Z,3.08
2022-08-10T15:12:13.389Z,2.65
2022-08-10T15:14:48.097Z,2.89
2022-08-10T15:17:39.643Z,3.37
2022-08-10T15:20:21.078Z,3.41
2022-08-10T15:22:55.784Z,3.41
2022-08-10T15:25:26.369Z,2.93
2022-08-10T15:28:08.175Z,4.81
2022-08-10T15:30:43.009Z,5.50
2022-08-10T15:33:57.671Z,5.39
2022-08-10T15:36:42.061Z,3.42
2022-08-10T15:40:20.970Z,3.39
2022-08-10T15:42:09.647Z,3.46
2022-08-10T15:44:41.451Z,2.86
2022-08-10T15:47:21.892Z,3.16
2022-08-10T15:50:22.306Z,2.85
2022-08-10T15:53:02.820Z,3.97
2022-08-10T15:55:45.853Z,3.85
2022-08-10T15:58:38.877Z,3.75
2022-08-10T16:02:04.274Z,4.15
2022-08-10T16:04:12.121Z,3.31
2022-08-10T16:07:01.172Z,4.30
2022-08-10T16:10:24.729Z,4.06
2022-08-10T16:12:29.182Z,3.84
2022-08-10T16:15:07.829Z,3.57
2022-08-10T16:18:06.236Z,3.60
2022-08-10T16:20:52.480Z,3.90
2022-08-10T16:23:32.752Z,3.33
2022-08-10T16:26:14.961Z,3.04
2022-08-10T16:28:48.694Z,3.65
2022-08-10T16:31:22.112Z,3.63
2022-08-10T16:33:55.153Z,3.38
2022-08-10T16:36:33.862Z,3.72
2022-08-10T16:39:02.943Z,6.05
2022-08-10T16:42:03.740Z,6.30
2022-08-10T16:44:23.564Z,3.51
2022-08-10T16:46:51.895Z,3.20
2022-08-10T16:49:23.034Z,3.22
2022-08-10T16:51:52.173Z,3.00
2022-08-10T16:54:27.396Z,3.18
2022-08-10T16:57:01.530Z,2.98
2022-08-10T16:59:34.184Z,3.20
2022-08-10T17:02:05.107Z,2.79
2022-08-10T17:04:36.407Z,2.82
2022-08-10T17:07:14.276Z,2.68
2022-08-10T17:09:49.559Z,2.81
2022-08-10T17:12:25.170Z,2.73
2022-08-10T17:15:09.693Z,3.09
2022-08-10T17:17:47.357Z,3.67
2022-08-10T17:20:30.450Z,3.31
2022-08-10T17:23:08.028Z,2.85
2022-08-10T17:25:48.746Z,2.65
2022-08-10T17:28:35.891Z,3.01
2022-08-10T17:31:23.746Z,2.85
2022-08-10T17:33:59.965Z,2.94
2022-08-10T17:36:36.155Z,2.85
2022-08-10T17:39:05.505Z,2.91
2022-08-10T17:41:35.817Z,7.21
2022-08-10T17:44:05.947Z,19.89
2022-08-10T17:46:38.920Z,7.57
2022-08-10T17:49:12.203Z,3.77
2022-08-10T17:51:43.960Z,3.32
2022-08-10T17:54:30.941Z,3.23
2022-08-10T17:57:02.434Z,3.50
2022-08-10T17:59:32.657Z,3.93
2022-08-10T18:02:09.184Z,3.40
2022-08-10T18:04:41.967Z,3.36
2022-08-10T18:07:12.484Z,3.52
2022-08-10T18:09:49.922Z,3.37
2022-08-10T18:12:32.012Z,3.49
2022-08-10T18:15:13.542Z,3.50
2022-08-10T18:18:01.051Z,3.58
2022-08-10T18:20:38.457Z,3.44
2022-08-10T18:23:08.383Z,3.33
2022-08-10T18:25:45.196Z,3.31
2022-08-10T18:28:19.479Z,3.63
2022-08-10T18:30:51.431Z,3.94
2022-08-10T18:33:26.227Z,3.98
2022-08-10T18:35:55.716Z,3.90
2022-08-10T18:38:25.656Z,3.74
2022-08-10T18:41:00.089Z,3.85
2022-08-10T18:44:07.572Z,4.20
2022-08-10T18:46:51.226Z,8.30
2022-08-10T18:49:30.758Z,11.46
2022-08-10T18:52:10.151Z,9.41
2022-08-10T18:54:47.905Z,17.26
2022-08-10T18:57:24.987Z,12.33
2022-08-10T19:00:07.443Z,9.05
2022-08-10T19:03:14.056Z,19.00
2022-08-10T19:06:22.779Z,11.72
2022-08-10T19:09:47.252Z,5.78
2022-08-10T19:12:30.185Z,5.04
2022-08-10T19:15:28.546Z,5.12
2022-08-10T19:18:08.011Z,4.93
2022-08-10T19:20:49.527Z,4.66
2022-08-10T19:23:48.123Z,4.15
2022-08-10T19:26:43.902Z,4.02
2022-08-10T19:30:09.036Z,3.99
2022-08-10T19:36:49.246Z,4.36
2022-08-10T19:47:26.636Z,4.17
2022-08-10T19:50:02.967Z,4.60
2022-08-10T19:52:47.151Z,4.13
2022-08-10T19:56:18.523Z,4.32
2022-08-10T19:59:07.762Z,4.08
2022-08-10T20:01:55.727Z,4.33
2022-08-10T20:05:17.488Z,4.17
2022-08-10T20:07:58.437Z,4.02
2022-08-10T20:10:43.681Z,4.34
2022-08-10T20:13:38.151Z,4.36
2022-08-10T20:16:27.892Z,4.24
2022-08-10T20:19:02.398Z,4.45
2022-08-10T20:21:38.688Z,4.25
2022-08-10T20:24:12.191Z,4.38
2022-08-10T20:26:46.779Z,4.35
2022-08-10T20:29:57.726Z,4.34
2022-08-10T20:32:33.614Z,4.33
2022-08-10T20:35:08.979Z,4.57
2022-08-10T20:38:04.393Z,4.38
2022-08-10T20:41:02.064Z,4.27
2022-08-10T20:43:47.216Z,4.45
2022-08-10T20:46:19.602Z,4.42
2022-08-10T20:49:01.295Z,9.82
2022-08-10T20:51:57.316Z,12.51
2022-08-10T20:54:34.324Z,11.19
2022-08-10T20:58:04.333Z,8.91
2022-08-10T21:00:23.234Z,7.43
2022-08-10T21:03:15.745Z,7.63
2022-08-10T21:06:43.749Z,7.53
2022-08-10T21:09:49.492Z,5.65
2022-08-10T21:12:44.896Z,4.76
2022-08-10T21:15:44.005Z,4.52
2022-08-10T21:18:32.512Z,4.49
2022-08-10T21:21:44.719Z,4.45
2022-08-10T21:24:29.699Z,4.35
2022-08-10T21:27:13.248Z,4.65
2022-08-10T21:30:08.566Z,4.97
2022-08-10T21:32:59.335Z,5.28
2022-08-10T21:35:41.007Z,5.06
2022-08-10T21:38:21.556Z,5.46
2022-08-10T21:41:19.094Z,5.90
2022-08-10T21:44:25.773Z,5.65
2022-08-10T21:48:07.343Z,5.60
2022-08-10T21:50:45.222Z,5.63
2022-08-10T21:53:55.420Z,5.48
2022-08-10T22:00:31.124Z,4.85
2022-08-10T22:03:21.880Z,4.96
2022-08-10T22:06:12.256Z,5.19
2022-08-10T22:09:05.767Z,4.87
2022-08-10T22:12:01.613Z,5.15
2022-08-10T22:14:51.741Z,5.11
2022-08-10T22:18:03.659Z,4.99
2022-08-10T22:20:55.577Z,5.39
2022-08-10T22:24:30.340Z,5.30
2022-08-10T22:27:46.075Z,5.07
2022-08-10T22:30:38.576Z,4.81
2022-08-10T22:31:25.594Z,4.88
2022-08-10T22:33:38.916Z,5.17
2022-08-10T22:36:50.841Z,5.05
2022-08-10T22:40:10.053Z,5.06
2022-08-10T22:43:10.713Z,5.19
2022-08-10T22:46:36.382Z,5.36
2022-08-10T22:49:05.193Z,5.15
2022-08-10T22:51:52.735Z,5.07
2022-08-10T22:54:45.266Z,5.42
2022-08-10T22:57:34.680Z,5.18
2022-08-10T23:00:30.974Z,5.02
2022-08-10T23:03:10.404Z,5.29
2022-08-10T23:05:44.080Z,5.32
2022-08-10T23:08:30.309Z,5.08
2022-08-10T23:11:08.257Z,5.45
2022-08-10T23:13:41.791Z,5.32
2022-08-10T23:16:40.620Z,5.56
2022-08-10T23:19:30.870Z,5.12
2022-08-10T23:22:10.520Z,5.35
2022-08-10T23:24:47.348Z,5.10
2022-08-10T23:27:38.001Z,5.23
2022-08-10T23:30:10.152Z,5.16
2022-08-10T23:32:45.261Z,4.89
2022-08-10T23:36:31.445Z,4.72
2022-08-10T23:38:06.510Z,4.98
2022-08-10T23:40:35.801Z,4.90
2022-08-10T23:43:05.611Z,4.81
2022-08-10T23:45:53.806Z,4.85
2022-08-10T23:48:34.524Z,5.03
2022-08-10T23:51:17.113Z,4.81
2022-08-10T23:53:48.614Z,4.68
2022-08-10T23:56:24.966Z,4.99
2022-08-10T23:58:55.996Z,4.98
